Time;durP1;ratioP1;P1;durP2;ratioP2;P2;SDS_P1;SDS_P2;PMS_P1;PMS_P2;Temp;Humidity;BMP_temperature;BMP_pressure;BME280_temperature;BME280_humidity;BME280_pressure;Samples;Min_cycle;Max_cycle;Signal;HPM_P1;HPM_P2
2023/04/21 00:01:21;;;;;;;7.35;1.98;;;;;;;22.41;29.77;102364.31;5091990;28;20035;-50
2023/04/21 00:03:47;;;;;;;7.95;2.15;;;;;;;22.26;29.72;102364.06;5089401;28;20024;-46
2023/04/21 00:06:21;;;;;;;9.40;1.95;;;;;;;21.73;30.44;102366.09;5072177;28;20024;-45
2023/04/21 00:08:48;;;;;;;7.82;2.35;;;;;;;21.47;30.03;102362.03;5080940;28;20031;-47
2023/04/21 00:11:14;;;;;;;10.88;2.55;;;;;;;21.16;32.71;102368.75;5092741;28;20039;-46
2023/04/21 00:13:40;;;;;;;6.68;2.65;;;;;;;21.87;33.03;102364.72;5091984;28;20028;-48
2023/04/21 00:16:07;;;;;;;7.47;1.90;;;;;;;22.02;33.17;102355.16;5092429;28;20108;-47
2023/04/21 00:18:33;;;;;;;7.85;2.35;;;;;;;22.02;33.74;102352.44;5092382;28;20051;-49
2023/04/21 00:20:59;;;;;;;6.53;2.13;;;;;;;21.36;33.44;102354.72;5092385;28;20077;-48
2023/04/21 00:23:25;;;;;;;8.80;2.75;;;;;;;21.63;34.69;102365.91;5092227;28;20566;-48
2023/04/21 00:25:52;;;;;;;8.40;2.13;;;;;;;21.95;34.01;102360.78;5100329;28;20034;-47
2023/04/21 00:28:18;;;;;;;5.85;2.00;;;;;;;21.05;32.61;102364.97;5105135;28;20046;-48
2023/04/21 00:30:45;;;;;;;7.65;2.00;;;;;;;21.36;33.25;102365.63;5084688;28;20047;-48
2023/04/21 00:33:11;;;;;;;6.75;2.53;;;;;;;20.78;34.48;102364.63;5091666;28;20063;-47
2023/04/21 00:35:37;;;;;;;8.90;2.45;;;;;;;20.99;34.74;102367.81;5092101;28;20032;-46
2023/04/21 00:38:03;;;;;;;9.00;2.72;;;;;;;21.18;32.19;102369.31;5084283;28;20423;-49
2023/04/21 00:40:30;;;;;;;6.72;1.85;;;;;;;20.76;34.38;102366.75;5090124;28;20574;-48
2023/04/21 00:42:56;;;;;;;6.75;2.33;;;;;;;20.31;34.43;102364.56;5095234;28;20024;-48
2023/04/21 00:45:22;;;;;;;6.30;2.10;;;;;;;20.93;34.55;102363.31;5092083;28;20051;-47
2023/04/21 00:47:48;;;;;;;5.10;1.83;;;;;;;21.19;33.51;102370.97;5092052;28;20024;-47
2023/04/21 00:50:14;;;;;;;6.63;2.15;;;;;;;21.18;34.34;102372.03;5092063;28;20078;-48
2023/04/21 00:52:45;;;;;;;7.30;2.22;;;;;;;21.25;32.88;102375.44;5091827;28;20492;-47
2023/04/21 00:55:12;;;;;;;9.38;3.90;;;;;;;21.37;30.52;102364.56;5091690;28;20047;-49
2023/04/21 00:57:38;;;;;;;9.73;3.00;;;;;;;21.14;30.88;102361.88;5092057;28;20461;-47
2023/04/21 01:00:07;;;;;;;9.60;3.35;;;;;;;21.15;29.86;102356.16;5105251;28;20179;-46
2023/04/21 01:02:38;;;;;;;7.40;2.05;;;;;;;21.24;30.31;102351.19;5113951;28;20526;-47
2023/04/21 01:05:08;;;;;;;8.07;3.08;;;;;;;21.31;30.02;102355.44;5114716;28;20032;-48
2023/04/21 01:07:35;;;;;;;9.25;3.30;;;;;;;21.41;30.98;102354.84;5074445;28;20032;-49
2023/04/21 01:10:02;;;;;;;4.88;2.42;;;;;;;21.24;32.20;102357.47;5075177;28;20119;-47
2023/04/21 01:12:29;;;;;;;4.65;1.70;;;;;;;21.07;31.12;102353.81;5075140;28;20032;-49
2023/04/21 01:14:56;;;;;;;7.28;1.63;;;;;;;21.01;30.70;102354.78;5075499;28;20032;-49
2023/04/21 01:17:22;;;;;;;5.35;1.95;;;;;;;20.92;31.25;102357.03;5083502;28;20033;-50
2023/04/21 01:19:50;;;;;;;5.65;1.92;;;;;;;20.69;30.36;102355.16;5075476;28;20051;-49
2023/04/21 01:22:17;;;;;;;5.10;1.70;;;;;;;20.54;32.02;102371.97;5093568;28;20028;-49
2023/04/21 01:24:46;;;;;;;4.82;1.83;;;;;;;20.39;31.34;102362.56;5095640;28;20058;-48
2023/04/21 01:27:17;;;;;;;5.72;1.80;;;;;;;20.21;31.62;102367.03;5095582;28;20046;-45
2023/04/21 01:29:46;;;;;;;6.32;1.63;;;;;;;19.89;31.36;102362.94;5094485;28;20105;-46
2023/04/21 01:32:17;;;;;;;9.93;1.73;;;;;;;19.88;32.61;102353.13;5094714;28;20024;-46
2023/04/21 01:34:44;;;;;;;7.55;1.83;;;;;;;19.75;32.60;102365.00;5096352;28;20036;-47
2023/04/21 01:37:13;;;;;;;3.60;1.70;;;;;;;19.60;32.67;102356.41;5095510;28;20506;-47
2023/04/21 01:39:41;;;;;;;6.45;2.33;;;;;;;19.46;33.38;102364.72;5095350;28;20060;-47
2023/04/21 01:42:08;;;;;;;5.13;1.75;;;;;;;19.35;32.77;102360.03;5094986;28;20031;-47
2023/04/21 01:44:34;;;;;;;6.00;1.90;;;;;;;19.32;33.77;102360.53;5094985;28;20361;-49
2023/04/21 01:47:01;;;;;;;7.22;2.03;;;;;;;19.13;34.15;102370.53;5087469;28;20087;-50
2023/04/21 01:49:27;;;;;;;7.93;2.53;;;;;;;19.10;34.26;102365.56;5074469;28;20543;-48
2023/04/21 01:51:53;;;;;;;8.90;2.40;;;;;;;18.65;34.62;102357.63;5107976;28;20055;-50
2023/04/21 01:54:20;;;;;;;13.75;2.17;;;;;;;18.57;35.35;102354.38;5096267;28;20028;-48
2023/04/21 01:56:46;;;;;;;5.28;2.13;;;;;;;18.48;35.03;102353.81;5081048;28;20423;-49
2023/04/21 01:59:12;;;;;;;6.93;1.85;;;;;;;18.48;35.63;102345.69;5091815;28;20094;-49
2023/04/21 02:01:38;;;;;;;12.05;2.75;;;;;;;18.22;35.55;102343.22;5111373;28;20027;-49
2023/04/21 02:04:05;;;;;;;5.13;1.85;;;;;;;18.20;35.32;102344.25;5088615;28;20165;-48
2023/04/21 02:06:31;;;;;;;6.40;2.10;;;;;;;18.12;36.14;102347.22;5112660;28;20034;-49
2023/04/21 02:08:57;;;;;;;8.88;2.30;;;;;;;17.87;36.48;102360.72;5093580;28;20035;-49
2023/04/21 02:11:25;;;;;;;7.75;2.40;;;;;;;17.94;37.27;102356.13;5093731;28;20032;-46
2023/04/21 02:13:55;;;;;;;5.80;1.90;;;;;;;17.89;37.60;102352.41;5094070;28;20028;-49
2023/04/21 02:16:25;;;;;;;6.43;2.55;;;;;;;17.87;38.21;102362.59;5094513;28;20028;-48
2023/04/21 02:18:56;;;;;;;8.32;2.30;;;;;;;17.74;37.77;102354.56;5073966;28;20051;-49
2023/04/21 02:21:23;;;;;;;8.07;2.38;;;;;;;17.52;38.64;102357.56;5074051;28;20024;-48
2023/04/21 02:23:50;;;;;;;6.95;2.17;;;;;;;17.64;38.59;102361.22;5073961;28;20431;-50
2023/04/21 02:26:17;;;;;;;10.25;2.28;;;;;;;17.33;38.36;102361.19;5094454;28;20051;-48
2023/04/21 02:28:43;;;;;;;4.55;1.42;;;;;;;17.40;38.52;102365.50;5093921;28;20081;-49
2023/04/21 02:31:10;;;;;;;5.72;1.88;;;;;;;17.31;37.82;102360.53;5094163;28;20028;-49
2023/04/21 02:33:36;;;;;;;6.03;2.17;;;;;;;17.13;38.58;102359.34;5093836;28;20020;-47
2023/04/21 02:36:03;;;;;;;8.52;2.15;;;;;;;16.97;38.34;102364.41;5094060;28;20028;-49
2023/04/21 02:38:29;;;;;;;5.13;2.00;;;;;;;16.94;38.85;102365.66;5093619;28;20051;-48
2023/04/21 02:40:56;;;;;;;6.45;2.38;;;;;;;16.71;39.68;102365.25;5093767;28;20028;-48
2023/04/21 02:43:23;;;;;;;7.82;2.50;;;;;;;16.61;39.49;102371.09;5073062;28;20388;-45
2023/04/21 02:45:49;;;;;;;9.07;2.45;;;;;;;16.46;39.69;102373.16;5073824;28;20094;-47
2023/04/21 02:48:21;;;;;;;9.45;2.30;;;;;;;16.50;39.65;102372.53;5079328;28;20464;-47
2023/04/21 02:50:49;;;;;;;9.40;2.22;;;;;;;16.15;40.47;102371.03;5093692;28;20040;-46
2023/04/21 02:53:15;;;;;;;10.38;2.50;;;;;;;16.02;40.94;102374.56;5091062;28;20169;-44
2023/04/21 02:55:42;;;;;;;5.90;2.30;;;;;;;15.99;41.42;102378.50;5093525;28;20020;-47
2023/04/21 02:58:09;;;;;;;6.57;2.30;;;;;;;15.97;41.15;102380.56;5081525;28;20491;-48
2023/04/21 03:00:35;;;;;;;8.10;2.20;;;;;;;15.95;41.51;102384.53;5090157;28;20082;-47
2023/04/21 03:03:02;;;;;;;8.48;3.08;;;;;;;15.85;42.02;102382.19;5089339;28;20023;-48
2023/04/21 03:05:28;;;;;;;4.82;1.73;;;;;;;15.85;42.55;102387.59;5073274;28;20035;-46
2023/04/21 03:07:55;;;;;;;9.02;2.42;;;;;;;15.81;42.97;102381.75;5073243;28;20064;-46
2023/04/21 03:10:21;;;;;;;6.57;2.53;;;;;;;15.64;43.35;102387.72;5072546;28;20028;-46
2023/04/21 03:12:48;;;;;;;10.07;2.17;;;;;;;15.65;43.66;102378.59;5072565;28;20464;-46
2023/04/21 03:15:14;;;;;;;7.50;2.20;;;;;;;15.61;43.35;102388.94;5078778;28;20051;-47
2023/04/21 03:17:40;;;;;;;6.88;2.75;;;;;;;15.57;43.64;102395.78;5075228;28;20493;-45
2023/04/21 03:20:10;;;;;;;9.30;2.65;;;;;;;15.53;43.76;102392.63;5083772;28;20107;-46
2023/04/21 03:22:37;;;;;;;8.32;2.50;;;;;;;15.53;44.09;102403.44;5071965;28;20457;-49
2023/04/21 03:25:06;;;;;;;6.18;2.35;;;;;;;15.56;43.93;102397.66;5072689;28;20040;-46
2023/04/21 03:27:33;;;;;;;6.45;2.50;;;;;;;15.67;43.89;102400.84;5072318;28;20366;-45
2023/04/21 03:29:59;;;;;;;7.97;2.42;;;;;;;15.84;43.41;102402.16;5072938;28;20024;-47
2023/04/21 03:32:25;;;;;;;4.65;2.35;;;;;;;15.70;43.71;102405.81;5077254;28;20031;-47
2023/04/21 03:34:52;;;;;;;7.53;2.15;;;;;;;15.80;43.79;102414.38;5092904;28;20109;-47
2023/04/21 03:37:18;;;;;;;4.13;2.03;;;;;;;15.89;43.93;102413.16;5092779;28;20117;-46
2023/04/21 03:39:44;;;;;;;8.63;2.95;;;;;;;15.89;43.69;102415.03;5073839;28;20492;-47
2023/04/21 03:42:10;;;;;;;7.55;2.58;;;;;;;15.87;43.72;102417.94;5072268;28;20021;-47
2023/04/21 03:44:37;;;;;;;5.25;2.00;;;;;;;15.94;43.69;102426.91;5072341;28;20033;-48
2023/04/21 03:47:03;;;;;;;6.03;2.40;;;;;;;15.85;44.09;102417.31;5072328;28;20029;-47
2023/04/21 03:49:29;;;;;;;6.45;2.63;;;;;;;16.02;44.04;102421.31;5082470;28;20024;-44
2023/04/21 03:51:56;;;;;;;8.88;2.85;;;;;;;15.92;44.34;102426.25;5112523;28;20418;-47
2023/04/21 03:54:22;;;;;;;8.65;2.33;;;;;;;15.84;44.39;102427.28;5111165;28;20076;-44
2023/04/21 03:56:48;;;;;;;6.65;2.60;;;;;;;15.85;44.55;102420.00;5092539;28;20024;-47
2023/04/21 03:59:14;;;;;;;10.07;2.38;;;;;;;15.87;44.96;102425.19;5079817;28;20066;-48
2023/04/21 04:01:41;;;;;;;8.07;2.72;;;;;;;15.92;45.05;102425.41;5075735;28;20097;-47
2023/04/21 04:04:07;;;;;;;6.47;2.90;;;;;;;15.79;45.67;102432.44;5075958;28;20047;-45
2023/04/21 04:06:34;;;;;;;6.32;2.50;;;;;;;15.73;45.68;102444.06;5091881;28;20358;-48
2023/04/21 04:09:04;;;;;;;4.93;2.08;;;;;;;15.70;45.68;102444.44;5096770;28;20036;-45
2023/04/21 04:11:31;;;;;;;8.68;2.45;;;;;;;15.73;45.25;102448.63;5090884;28;20051;-43
2023/04/21 04:13:57;;;;;;;5.25;2.40;;;;;;;15.79;45.13;102439.72;5091926;28;20483;-44
2023/04/21 04:16:24;;;;;;;7.95;2.40;;;;;;;15.75;45.33;102439.28;5090993;28;20099;-45
2023/04/21 04:18:50;;;;;;;7.00;2.63;;;;;;;15.64;45.52;102450.66;5108986;28;20104;-47
2023/04/21 04:21:16;;;;;;;6.20;2.50;;;;;;;15.65;45.43;102446.06;5109886;28;20027;-44
2023/04/21 04:23:43;;;;;;;7.07;2.05;;;;;;;15.57;45.99;102450.59;5112265;27;20027;-47
2023/04/21 04:26:10;;;;;;;7.80;2.60;;;;;;;15.54;46.14;102459.06;5094481;28;20101;-47
2023/04/21 04:28:37;;;;;;;8.77;2.40;;;;;;;15.51;46.42;102462.19;5090686;28;20115;-46
2023/04/21 04:31:04;;;;;;;6.28;2.33;;;;;;;15.36;46.94;102464.16;5105248;28;20027;-45
2023/04/21 04:33:30;;;;;;;5.07;2.05;;;;;;;15.38;46.86;102458.56;5111317;28;20108;-48
2023/04/21 04:35:57;;;;;;;10.15;2.85;;;;;;;15.81;46.01;102451.97;5109750;28;20039;-44
2023/04/21 04:38:23;;;;;;;8.88;2.53;;;;;;;15.56;46.51;102453.50;5109964;28;20027;-44
2023/04/21 04:41:00;;;;;;;6.50;2.22;;;;;;;15.30;47.27;102460.38;5112290;28;20035;-46
2023/04/21 04:43:27;;;;;;;5.43;3.05;;;;;;;15.10;47.75;102458.59;5089331;28;20031;-47
2023/04/21 04:45:53;;;;;;;6.20;2.50;;;;;;;15.38;46.93;102459.41;5090917;28;20057;-47
2023/04/21 04:48:20;;;;;;;5.15;2.42;;;;;;;15.50;46.73;102457.00;5090660;28;20036;-46
2023/04/21 04:50:46;;;;;;;8.68;2.58;;;;;;;15.41;47.25;102461.72;5098074;28;20028;-47
2023/04/21 04:53:12;;;;;;;8.50;2.78;;;;;;;14.96;48.24;102466.59;5111916;28;20032;-44
2023/04/21 04:55:38;;;;;;;7.00;2.30;;;;;;;14.82;48.62;102466.66;5110418;28;20038;-48
2023/04/21 04:58:05;;;;;;;10.85;3.00;;;;;;;14.10;50.48;102463.03;5110088;28;20097;-48
2023/04/21 05:00:32;;;;;;;6.43;2.83;;;;;;;14.04;50.96;102471.00;5112437;28;20439;-45
2023/04/21 05:02:58;;;;;;;6.07;2.45;;;;;;;14.11;51.13;102475.47;5104653;28;20039;-49
2023/04/21 05:05:24;;;;;;;6.70;3.08;;;;;;;13.87;51.64;102468.53;5094218;28;20387;-48
2023/04/21 05:07:51;;;;;;;7.10;2.80;;;;;;;13.77;51.65;102470.72;5095008;28;20038;-46
2023/04/21 05:10:17;;;;;;;7.93;3.00;;;;;;;13.73;52.31;102467.56;5111964;28;20023;-48
2023/04/21 05:12:43;;;;;;;9.00;2.65;;;;;;;13.62;52.25;102484.16;5109870;28;20410;-46
2023/04/21 05:15:10;;;;;;;6.85;2.15;;;;;;;13.46;52.58;102481.66;5111834;28;20081;-47
2023/04/21 05:17:36;;;;;;;8.65;2.55;;;;;;;13.23;53.36;102484.44;5106365;28;20412;-44
2023/04/21 05:20:06;;;;;;;7.90;2.85;;;;;;;13.39;53.19;102478.03;5090664;28;20024;-45
2023/04/21 05:22:37;;;;;;;7.57;2.70;;;;;;;13.10;54.11;102478.78;5091471;28;20166;-46
2023/04/21 05:25:04;;;;;;;7.97;2.88;;;;;;;12.60;56.02;102486.47;5111518;28;20046;-48
2023/04/21 05:27:31;;;;;;;8.90;2.88;;;;;;;13.13;54.93;102491.88;5109485;28;20019;-45
2023/04/21 05:29:57;;;;;;;8.55;3.08;;;;;;;13.22;54.13;102490.00;5111765;28;20016;-46
2023/04/21 05:32:23;;;;;;;7.80;2.92;;;;;;;13.21;55.03;102486.44;5103927;28;20085;-46
2023/04/21 05:34:49;;;;;;;8.65;2.78;;;;;;;13.09;54.55;102493.25;5111880;28;20102;-48
2023/04/21 05:37:15;;;;;;;4.65;2.22;;;;;;;12.96;55.05;102496.56;5109572;28;20123;-44
2023/04/21 05:39:42;;;;;;;5.82;2.55;;;;;;;13.20;54.52;102499.03;5111585;28;20016;-48
2023/04/21 05:42:11;;;;;;;5.72;2.58;;;;;;;13.34;54.63;102500.09;5098934;28;20032;-44
2023/04/21 05:44:37;;;;;;;9.27;2.55;;;;;;;13.40;54.54;102494.00;5092262;28;20020;-48
2023/04/21 05:47:05;;;;;;;6.88;2.83;;;;;;;13.47;54.08;102494.09;5104231;28;20065;-46
2023/04/21 05:49:31;;;;;;;9.23;2.97;;;;;;;13.13;55.40;102486.50;5115357;28;20027;-48
2023/04/21 05:51:57;;;;;;;14.23;3.10;;;;;;;13.14;55.59;102488.16;5112965;28;20038;-47
2023/04/21 05:54:23;;;;;;;9.23;3.38;;;;;;;13.26;55.08;102481.34;5115318;27;20108;-46
2023/04/21 05:56:50;;;;;;;9.23;2.65;;;;;;;13.32;55.55;102490.53;5112925;28;20031;-45
2023/04/21 05:59:16;;;;;;;6.03;2.45;;;;;;;13.11;55.76;102488.56;5115269;28;20023;-47
2023/04/21 06:01:43;;;;;;;6.25;2.70;;;;;;;13.31;55.54;102481.63;5101673;28;20028;-44
2023/04/21 06:04:09;;;;;;;8.23;3.20;;;;;;;13.39;55.14;102489.63;5094833;28;20020;-44
2023/04/21 06:06:35;;;;;;;8.50;2.50;;;;;;;13.39;55.03;102478.03;5093622;28;20028;-47
2023/04/21 06:09:02;;;;;;;9.32;2.95;;;;;;;13.45;54.76;102485.38;5094573;28;20024;-46
2023/04/21 06:11:28;;;;;;;5.25;2.30;;;;;;;13.51;54.71;102481.09;5093052;28;20035;-45
2023/04/21 06:13:57;;;;;;;8.40;3.03;;;;;;;13.50;55.04;102482.13;5093232;28;20454;-48
2023/04/21 06:16:23;;;;;;;8.68;2.80;;;;;;;13.46;55.16;102484.34;5074211;28;20028;-44
2023/04/21 06:18:49;;;;;;;6.63;3.20;;;;;;;13.33;55.31;102482.31;5074330;28;20036;-48
2023/04/21 06:21:15;;;;;;;11.75;2.67;;;;;;;13.30;55.65;102476.44;5114375;28;20051;-46
2023/04/21 06:23:42;;;;;;;7.30;2.95;;;;;;;13.18;56.17;102473.34;5114573;28;20081;-48
2023/04/21 06:26:08;;;;;;;7.72;2.60;;;;;;;13.31;55.65;102473.56;5093520;28;20034;-45
2023/04/21 06:28:36;;;;;;;5.57;2.38;;;;;;;13.42;55.19;102474.97;5094332;28;20451;-47
2023/04/21 06:31:03;;;;;;;7.80;2.60;;;;;;;13.53;54.85;102471.00;5110214;28;20038;-45
2023/04/21 06:33:30;;;;;;;10.95;2.33;;;;;;;13.34;55.49;102461.63;5114328;28;20027;-48
2023/04/21 06:35:56;;;;;;;8.77;2.15;;;;;;;13.37;55.80;102469.31;5112492;28;20072;-45
2023/04/21 06:38:22;;;;;;;10.38;3.25;;;;;;;12.99;57.04;102466.63;5114408;28;20034;-44
2023/04/21 06:40:49;;;;;;;7.32;2.53;;;;;;;13.40;56.35;102464.41;5094458;28;20021;-47
2023/04/21 06:43:16;;;;;;;9.82;2.60;;;;;;;13.29;56.46;102469.41;5073538;28;20036;-45
2023/04/21 06:45:42;;;;;;;10.93;2.53;;;;;;;13.33;56.43;102468.03;5099750;28;20381;-44
2023/04/21 06:48:08;;;;;;;11.98;2.78;;;;;;;13.19;56.76;102465.09;5106688;27;20028;-44
2023/04/21 06:50:34;;;;;;;7.85;3.50;;;;;;;13.23;57.25;102454.84;5114207;28;20054;-48
2023/04/21 06:53:01;;;;;;;7.75;2.90;;;;;;;13.19;56.96;102464.25;5111571;28;20084;-46
2023/04/21 06:55:27;;;;;;;6.55;2.90;;;;;;;13.28;56.93;102463.19;5112659;28;20027;-44
2023/04/21 06:57:53;;;;;;;7.65;2.95;;;;;;;13.12;56.76;102463.34;5093637;28;20102;-45
2023/04/21 07:00:20;;;;;;;8.75;2.63;;;;;;;13.26;56.52;102472.44;5093580;28;20108;-48
2023/04/21 07:02:46;;;;;;;11.75;3.47;;;;;;;13.29;56.56;102466.72;5093126;28;20036;-48
2023/04/21 07:05:12;;;;;;;11.70;5.10;;;;;;;13.41;56.25;102463.38;5093577;28;20495;-44
2023/04/21 07:07:38;;;;;;;9.60;4.38;;;;;;;13.27;56.71;102456.16;5093411;28;20035;-44
2023/04/21 07:10:05;;;;;;;6.28;3.65;;;;;;;13.35;56.77;102453.38;5093455;28;20020;-48
2023/04/21 07:12:32;;;;;;;7.38;2.80;;;;;;;13.48;56.10;102447.31;5092970;28;20570;-45
2023/04/21 07:14:58;;;;;;;9.38;3.40;;;;;;;13.46;56.33;102449.38;5101653;28;20027;-45
2023/04/21 07:17:24;;;;;;;12.00;5.40;;;;;;;13.25;56.76;102447.41;5093049;28;20048;-48
2023/04/21 07:19:51;;;;;;;10.80;3.58;;;;;;;13.28;57.03;102446.22;5093244;28;20419;-44
2023/04/21 07:22:17;;;;;;;9.13;3.90;;;;;;;13.16;57.18;102440.44;5092744;28;20020;-45
2023/04/21 07:24:43;;;;;;;9.45;3.00;;;;;;;13.15;56.70;102441.44;5093204;28;20056;-45
2023/04/21 07:27:09;;;;;;;8.25;2.33;;;;;;;13.07;56.80;102454.97;5092906;28;20114;-45
2023/04/21 07:29:36;;;;;;;13.38;2.70;;;;;;;13.13;56.54;102448.88;5093037;28;20020;-48
2023/04/21 07:32:02;;;;;;;6.55;2.72;;;;;;;13.16;56.69;102448.50;5110151;28;20120;-45
2023/04/21 07:34:28;;;;;;;11.25;2.95;;;;;;;12.93;56.87;102448.53;5113415;28;20039;-44
2023/04/21 07:36:55;;;;;;;9.68;2.70;;;;;;;12.96;57.20;102442.81;5113173;28;20066;-44
2023/04/21 07:39:21;;;;;;;9.50;2.67;;;;;;;13.08;56.66;102448.56;5106681;28;20016;-47
2023/04/21 07:41:48;;;;;;;8.57;2.55;;;;;;;13.09;56.65;102447.56;5072428;28;20488;-44
2023/04/21 07:44:14;;;;;;;8.55;2.70;;;;;;;13.08;56.80;102452.09;5072483;28;20020;-46
2023/04/21 07:46:40;;;;;;;7.93;2.75;;;;;;;13.13;56.73;102449.69;5083271;28;20032;-45
2023/04/21 07:49:06;;;;;;;12.38;5.60;;;;;;;13.11;56.82;102451.75;5093181;28;20028;-47
2023/04/21 07:51:33;;;;;;;11.23;4.80;;;;;;;13.27;57.07;102449.91;5092378;28;20038;-45
2023/04/21 07:53:59;;;;;;;9.85;4.30;;;;;;;13.41;56.61;102455.31;5092569;28;20488;-48
2023/04/21 07:56:25;;;;;;;7.00;3.80;;;;;;;13.37;56.73;102462.06;5092435;28;20490;-46
2023/04/21 07:58:52;;;;;;;6.47;2.85;;;;;;;13.38;57.22;102457.53;5092588;28;20055;-48
2023/04/21 08:01:19;;;;;;;8.68;3.85;;;;;;;13.32;57.61;102458.25;5092350;28;20035;-48
2023/04/21 08:03:45;;;;;;;5.28;2.70;;;;;;;13.34;57.39;102454.38;5092176;28;20035;-47
2023/04/21 08:06:11;;;;;;;4.97;2.83;;;;;;;13.22;57.91;102452.34;5092849;28;20024;-47
2023/04/21 08:08:37;;;;;;;6.43;2.72;;;;;;;13.22;57.41;102439.75;5090278;28;20093;-46
2023/04/21 08:11:04;;;;;;;3.60;2.25;;;;;;;13.19;57.91;102446.28;5092255;28;20020;-48
2023/04/21 08:13:31;;;;;;;7.25;3.15;;;;;;;13.18;58.21;102447.28;5092111;28;20480;-47
2023/04/21 08:15:57;;;;;;;7.07;2.50;;;;;;;13.20;58.12;102436.34;5092460;28;20384;-46
2023/04/21 08:18:23;;;;;;;5.30;1.90;;;;;;;13.20;58.25;102433.66;5092044;28;20036;-45
2023/04/21 08:20:51;;;;;;;5.25;2.30;;;;;;;13.24;58.40;102434.16;5091955;28;20035;-48
2023/04/21 08:23:18;;;;;;;5.82;2.03;;;;;;;13.16;58.25;102424.31;5092537;28;20024;-45
2023/04/21 08:25:44;;;;;;;5.68;1.90;;;;;;;13.18;57.76;102431.16;5091733;28;20024;-44
2023/04/21 08:28:11;;;;;;;5.95;2.17;;;;;;;13.15;58.14;102433.38;5091980;28;20504;-44
2023/04/21 08:30:37;;;;;;;6.13;2.55;;;;;;;13.22;57.62;102430.84;5092152;28;20073;-45
2023/04/21 08:33:03;;;;;;;5.18;2.40;;;;;;;13.02;58.65;102422.44;5091540;28;20430;-46
2023/04/21 08:35:29;;;;;;;4.45;1.90;;;;;;;13.08;58.39;102427.06;5092013;28;20024;-48
2023/04/21 08:37:55;;;;;;;7.10;2.10;;;;;;;13.06;58.05;102416.50;5091661;28;20036;-48
2023/04/21 08:40:31;;;;;;;3.25;2.10;;;;;;;13.10;57.69;102422.34;5080401;28;20826;-46
2023/04/21 08:42:58;;;;;;;8.30;2.83;;;;;;;13.03;57.39;102416.03;5086676;28;20483;-48
2023/04/21 08:45:26;;;;;;;4.18;2.03;;;;;;;12.97;56.87;102417.59;5090971;28;20032;-48
2023/04/21 08:47:55;;;;;;;5.95;2.03;;;;;;;12.89;56.62;102425.75;5109656;28;20553;-47
2023/04/21 08:50:26;;;;;;;4.60;2.28;;;;;;;12.92;57.00;102420.84;5103745;28;20107;-45
2023/04/21 08:52:53;;;;;;;7.50;2.90;;;;;;;12.92;56.34;102420.84;5069510;28;20036;-47
2023/04/21 08:55:24;;;;;;;5.22;2.17;;;;;;;12.98;56.27;102421.13;5108039;28;20437;-46
2023/04/21 08:57:50;;;;;;;5.28;2.30;;;;;;;12.94;55.86;102418.81;5091397;28;20489;-47
2023/04/21 09:00:17;;;;;;;5.55;2.60;;;;;;;13.09;55.53;102417.97;5071008;28;20029;-44
2023/04/21 09:02:57;;;;;;;5.13;2.10;;;;;;;12.98;55.87;102413.06;5070799;28;20020;-45
2023/04/21 09:05:26;;;;;;;5.85;1.92;;;;;;;12.84;56.32;102407.50;5073755;28;20020;-45
2023/04/21 09:08:07;;;;;;;9.77;2.30;;;;;;;12.81;56.77;102407.84;5071046;28;20124;-47
2023/04/21 09:10:33;;;;;;;5.07;2.35;;;;;;;12.74;57.58;102406.06;5072990;28;20112;-46
2023/04/21 09:13:07;;;;;;;4.10;2.00;;;;;;;12.66;57.88;102415.88;5070861;28;20028;-43
2023/04/21 09:15:41;;;;;;;3.80;1.75;;;;;;;12.72;57.52;102408.94;5071653;28;20477;-45
2023/04/21 09:18:13;;;;;;;6.57;2.80;;;;;;;12.56;57.96;102409.09;5071041;28;20135;-46
2023/04/21 09:20:42;;;;;;;2.38;1.70;;;;;;;12.50;57.90;102410.66;5074246;28;20036;-46
2023/04/21 09:23:09;;;;;;;4.82;1.92;;;;;;;12.42;58.56;102408.00;5074591;28;20373;-44
2023/04/21 09:25:39;;;;;;;3.45;1.90;;;;;;;12.44;58.14;102416.75;5076268;28;20548;-47
2023/04/21 09:28:09;;;;;;;5.43;1.83;;;;;;;12.50;58.59;102415.19;5075084;28;20354;-47
2023/04/21 09:30:37;;;;;;;4.05;1.92;;;;;;;12.46;58.97;102417.38;5083670;28;20035;-44
2023/04/21 09:33:04;;;;;;;6.07;1.92;;;;;;;12.52;58.89;102416.66;5094817;28;20097;-46
2023/04/21 09:35:39;;;;;;;6.22;2.28;;;;;;;12.59;59.04;102414.09;5074572;28;20508;-44
2023/04/21 09:38:11;;;;;;;3.70;1.52;;;;;;;12.43;59.31;102418.56;5074675;28;20043;-44
2023/04/21 09:40:39;;;;;;;5.10;2.20;;;;;;;12.30;59.37;102412.97;5076928;28;20029;-47
2023/04/21 09:43:06;;;;;;;4.78;1.98;;;;;;;12.30;59.96;102414.81;5074458;28;20066;-45
2023/04/21 09:45:33;;;;;;;4.57;2.10;;;;;;;12.31;59.68;102422.69;5085899;28;20131;-48
2023/04/21 09:48:03;;;;;;;11.68;2.33;;;;;;;12.17;60.22;102423.47;5090443;28;20042;-44
2023/04/21 09:50:29;;;;;;;7.80;2.33;;;;;;;12.30;60.32;102418.34;5115627;28;20099;-49
2023/04/21 09:52:56;;;;;;;3.50;2.10;;;;;;;12.23;60.40;102419.25;5096869;28;20103;-45
2023/04/21 09:55:27;;;;;;;2.65;1.60;;;;;;;12.19;60.13;102429.50;5074148;28;20033;-44
2023/04/21 09:57:58;;;;;;;6.35;2.47;;;;;;;12.24;60.64;102421.75;5073159;28;20020;-44
2023/04/21 10:00:27;;;;;;;8.18;2.30;;;;;;;12.34;60.73;102421.50;5074094;28;20054;-45
2023/04/21 10:02:56;;;;;;;4.68;2.20;;;;;;;12.18;60.65;102421.63;5080624;28;20085;-45
2023/04/21 10:05:22;;;;;;;7.18;2.65;;;;;;;12.27;60.89;102416.03;5086014;28;20027;-48
2023/04/21 10:07:49;;;;;;;6.47;2.33;;;;;;;12.12;61.08;102423.16;5073677;28;20476;-47
2023/04/21 10:10:24;;;;;;;5.32;2.17;;;;;;;11.76;62.70;102422.81;5090323;28;20024;-44
2023/04/21 10:12:51;;;;;;;4.93;2.50;;;;;;;12.10;61.99;102420.69;5096941;28;20031;-44
2023/04/21 10:15:40;;;;;;;6.25;2.50;;;;;;;11.99;61.85;102409.47;5086489;28;20167;-45
2023/04/21 10:18:15;;;;;;;5.93;2.65;;;;;;;11.99;62.10;102414.84;5075196;28;20063;-46
2023/04/21 10:21:20;;;;;;;4.70;2.20;;;;;;;11.97;62.54;102412.34;5073600;28;20037;-45
2023/04/21 10:23:48;;;;;;;5.80;2.53;;;;;;;12.20;61.44;102411.53;5060831;28;20119;-47
2023/04/21 10:26:22;;;;;;;4.07;2.08;;;;;;;11.93;61.85;102416.38;5068595;28;20494;-48
2023/04/21 10:28:59;;;;;;;7.72;2.42;;;;;;;11.72;62.69;102411.63;5074290;28;20037;-44
2023/04/21 10:31:51;;;;;;;4.90;2.03;;;;;;;11.82;62.24;102406.88;5073796;28;20473;-46
2023/04/21 10:34:20;;;;;;;6.55;2.38;;;;;;;11.86;62.29;102418.13;5073494;28;20040;-44
2023/04/21 10:36:46;;;;;;;5.75;2.28;;;;;;;11.86;61.83;102404.69;5090818;28;20024;-44
2023/04/21 10:39:32;;;;;;;3.60;2.15;;;;;;;11.87;61.42;102403.69;5079671;28;20020;-47
2023/04/21 10:42:19;;;;;;;5.50;2.13;;;;;;;11.98;60.39;102407.81;5073528;28;20033;-44
2023/04/21 10:44:57;;;;;;;4.68;1.80;;;;;;;11.95;60.80;102408.19;5073525;28;20025;-45
2023/04/21 10:47:50;;;;;;;4.80;2.20;;;;;;;12.10;61.25;102409.94;5089604;28;20071;-44
2023/04/21 10:50:26;;;;;;;4.47;2.28;;;;;;;11.95;61.64;102400.13;5083347;28;20469;-44
2023/04/21 10:52:56;;;;;;;3.88;2.00;;;;;;;11.86;61.86;102407.38;5093646;28;20503;-44
2023/04/21 10:55:26;;;;;;;6.82;2.20;;;;;;;11.85;61.95;102403.88;5100930;28;20172;-45
2023/04/21 10:57:52;;;;;;;3.17;1.88;;;;;;;11.76;62.21;102399.50;5090301;28;20055;-44
2023/04/21 11:00:22;;;;;;;5.03;2.25;;;;;;;11.83;61.92;102405.91;5093512;28;20028;-47
2023/04/21 11:02:56;;;;;;;7.70;2.63;;;;;;;11.79;62.38;102409.91;5093069;28;20103;-47
2023/04/21 11:05:49;;;;;;;3.60;2.25;;;;;;;11.91;61.96;102406.84;5093362;28;20031;-48
2023/04/21 11:08:15;;;;;;;6.47;2.50;;;;;;;11.88;62.00;102400.84;5070644;28;20033;-47
2023/04/21 11:11:02;;;;;;;5.45;2.33;;;;;;;12.08;62.40;102411.13;5072800;28;20028;-46
2023/04/21 11:13:32;;;;;;;8.38;2.90;;;;;;;12.14;62.29;102399.66;5073368;28;20032;-45
2023/04/21 11:16:02;;;;;;;5.43;2.78;;;;;;;12.03;63.05;102400.06;5090073;28;20038;-47
2023/04/21 11:18:43;;;;;;;5.28;2.30;;;;;;;12.06;63.35;102397.88;5093068;28;20052;-45
2023/04/21 11:21:20;;;;;;;4.53;2.30;;;;;;;11.98;63.61;102400.59;5092862;28;20020;-44
2023/04/21 11:23:54;;;;;;;4.95;2.55;;;;;;;11.97;63.84;102400.78;5093228;28;20388;-45
2023/04/21 11:26:38;;;;;;;4.32;2.38;;;;;;;11.75;64.85;102405.06;5093089;28;20052;-47
2023/04/21 11:29:06;;;;;;;5.22;2.22;;;;;;;11.60;65.21;102407.63;5097370;28;20031;-44